createdAt,value
2022-09-23T00:07:32.545Z,17.92
2022-09-23T00:17:35.239Z,16.80
2022-09-23T00:27:40.636Z,14.65
2022-09-23T00:37:48.599Z,15.68
2022-09-23T00:48:02.800Z,15.30
2022-09-23T00:58:09.807Z,17.48
2022-09-23T01:08:23.821Z,16.50
2022-09-23T01:19:04.304Z,15.07
2022-09-23T01:29:36.903Z,17.27
2022-09-23T01:40:01.821Z,16.52
2022-09-23T01:50:42.718Z,15.10
2022-09-23T02:00:55.870Z,16.15
2022-09-23T02:11:10.602Z,16.73
2022-09-23T02:21:15.505Z,15.75
2022-09-23T02:31:38.509Z,15.40
2022-09-23T02:41:45.126Z,18.23
2022-09-23T02:51:50.908Z,15.85
2022-09-23T03:02:14.880Z,14.43
2022-09-23T03:12:34.449Z,19.42
2022-09-23T03:22:49.959Z,18.13
2022-09-23T03:32:54.979Z,19.88
2022-09-23T03:42:57.915Z,17.40
2022-09-23T03:53:01.377Z,15.33
2022-09-23T04:03:03.982Z,14.68
2022-09-23T04:13:07.805Z,15.10
2022-09-23T04:23:09.363Z,14.65
2022-09-23T04:33:12.920Z,14.85
2022-09-23T04:43:28.035Z,16.25
2022-09-23T04:53:31.758Z,18.85
2022-09-23T05:03:36.019Z,17.40
2022-09-23T05:13:37.743Z,19.52
2022-09-23T05:23:40.850Z,22.20
2022-09-23T05:33:44.472Z,27.73
2022-09-23T05:43:47.537Z,17.73
2022-09-23T05:53:51.288Z,28.37
2022-09-23T06:03:54.790Z,14.65
2022-09-23T06:14:02.598Z,14.18
2022-09-23T06:24:05.072Z,15.93
2022-09-23T06:34:14.192Z,19.75
2022-09-23T06:44:17.015Z,20.02
2022-09-23T06:54:18.609Z,15.65
2022-09-23T07:04:21.271Z,18.30
2022-09-23T07:14:24.128Z,13.43
2022-09-23T07:24:26.978Z,14.70
2022-09-23T07:34:28.601Z,10.27
2022-09-23T07:44:31.757Z,9.57
2022-09-23T07:54:36.342Z,7.72
2022-09-23T08:04:39.262Z,6.53
2022-09-23T08:14:40.888Z,5.85
2022-09-23T08:24:44.750Z,5.45
2022-09-23T08:34:46.459Z,16.48
2022-09-23T08:44:53.358Z,7.17
2022-09-23T08:54:55.679Z,6.68
2022-09-23T09:05:03.450Z,6.32
2022-09-23T09:15:12.491Z,4.78
2022-09-23T09:26:05.205Z,7.80
2022-09-23T09:36:36.602Z,3.40
2022-09-23T09:46:52.127Z,4.68
2022-09-23T09:56:56.099Z,3.88
2022-09-23T10:07:27.251Z,4.25
2022-09-23T10:27:42.576Z,4.45
2022-09-23T10:37:56.637Z,6.60
2022-09-23T10:48:07.744Z,5.32
2022-09-23T10:58:19.523Z,6.20
2022-09-23T11:08:51.541Z,5.60
2022-09-23T11:19:13.313Z,6.88
2022-09-23T11:29:34.411Z,6.45
2022-09-23T11:39:42.645Z,7.60
2022-09-23T11:50:13.005Z,4.15
2022-09-23T12:00:29.014Z,3.70
2022-09-23T12:10:56.303Z,3.95
2022-09-23T12:21:49.066Z,3.42
2022-09-23T12:31:54.742Z,6.18
2022-09-23T12:42:06.670Z,4.82
2022-09-23T13:02:38.587Z,5.97
2022-09-23T13:12:42.739Z,3.17
2022-09-23T13:22:54.083Z,3.63
2022-09-23T13:33:12.930Z,4.50
2022-09-23T13:43:41.408Z,6.28
2022-09-23T13:53:52.399Z,5.10
2022-09-23T14:03:55.992Z,8.15
2022-09-23T14:13:59.744Z,3.88
2022-09-23T14:24:21.010Z,15.35
2022-09-23T14:34:52.431Z,6.72
2022-09-23T14:44:54.147Z,12.90
2022-09-23T14:54:55.909Z,6.10
2022-09-23T15:05:18.106Z,5.25
2022-09-23T15:15:30.089Z,7.55
2022-09-23T15:35:54.836Z,4.88
2022-09-23T15:46:05.481Z,7.70
2022-09-23T16:05:52.519Z,13.40
2022-09-23T16:15:54.305Z,10.80
2022-09-23T16:26:05.772Z,16.85
2022-09-23T16:36:21.370Z,9.40
2022-09-23T16:46:25.037Z,14.50
2022-09-23T16:56:29.060Z,7.70
2022-09-23T17:06:32.485Z,11.18
2022-09-23T17:16:35.240Z,8.52
2022-09-23T17:26:38.375Z,6.55
2022-09-23T17:36:40.660Z,9.32
2022-09-23T17:46:43.849Z,8.37
2022-09-23T17:56:45.457Z,8.77
2022-09-23T18:06:48.536Z,13.20
2022-09-23T18:26:54.988Z,20.38
2022-09-23T18:36:57.748Z,14.13
2022-09-23T18:46:59.580Z,22.08
2022-09-23T18:57:03.629Z,13.82
2022-09-23T19:07:05.650Z,22.30
2022-09-23T19:17:08.124Z,18.08
2022-09-23T19:27:15.003Z,22.80
2022-09-23T19:37:16.755Z,16.98
2022-09-23T19:47:20.655Z,22.92
2022-09-23T19:57:30.120Z,24.35
2022-09-23T20:07:31.723Z,26.77
2022-09-23T20:17:33.838Z,27.75
2022-09-23T20:27:35.699Z,28.88
2022-09-23T20:37:38.272Z,27.30
2022-09-23T20:47:40.655Z,23.70
2022-09-23T20:57:43.340Z,26.30
2022-09-23T21:07:49.158Z,25.90
2022-09-23T21:17:50.753Z,24.75
2022-09-23T21:27:53.846Z,31.55
2022-09-23T21:38:00.965Z,28.70
2022-09-23T21:48:02.732Z,30.13
2022-09-23T21:58:05.410Z,29.10
2022-09-23T22:08:09.295Z,27.90
2022-09-23T22:18:12.071Z,29.48
2022-09-23T22:28:32.251Z,30.60
2022-09-23T22:38:33.794Z,26.00
2022-09-23T22:48:35.417Z,27.30
2022-09-23T22:58:37.095Z,29.42
2022-09-23T23:08:38.864Z,25.42
2022-09-23T23:18:43.527Z,27.02
2022-09-23T23:28:45.219Z,21.88
2022-09-23T23:38:48.343Z,25.42
2022-09-23T23:48:51.235Z,26.60
2022-09-23T23:58:57.848Z,31.37
